sensor_id;sensor_type;location;lat;lon;timestamp;pressure;altitude;pressure_sealevel;temperature;humidity
6668;BME280;3370;47.712;9.082;2022-12-18T00:01:25;98042.03;;;-3.32;87.01
6668;BME280;3370;47.712;9.082;2022-12-18T00:03:54;98054.63;;;-3.32;87.04
6668;BME280;3370;47.712;9.082;2022-12-18T00:06:21;98052.03;;;-3.35;86.62
6668;BME280;3370;47.712;9.082;2022-12-18T00:08:48;98052.66;;;-3.42;86.57
6668;BME280;3370;47.712;9.082;2022-12-18T00:11:17;98052.94;;;-3.31;87.56
6668;BME280;3370;47.712;9.082;2022-12-18T00:13:44;98053.59;;;-3.38;88.24
6668;BME280;3370;47.712;9.082;2022-12-18T00:16:16;98053.41;;;-3.46;88.51
6668;BME280;3370;47.712;9.082;2022-12-18T00:18:46;98055.97;;;-3.43;88.92
6668;BME280;3370;47.712;9.082;2022-12-18T00:21:14;98060.25;;;-3.40;87.67
6668;BME280;3370;47.712;9.082;2022-12-18T00:23:42;98055.84;;;-3.49;88.08
6668;BME280;3370;47.712;9.082;2022-12-18T00:26:19;98057.56;;;-3.47;89.10
6668;BME280;3370;47.712;9.082;2022-12-18T00:28:46;98053.38;;;-3.48;89.00
6668;BME280;3370;47.712;9.082;2022-12-18T00:31:21;98064.13;;;-3.53;89.38
6668;BME280;3370;47.712;9.082;2022-12-18T00:33:48;98068.38;;;-3.51;89.76
6668;BME280;3370;47.712;9.082;2022-12-18T00:36:17;98070.84;;;-3.52;89.69
6668;BME280;3370;47.712;9.082;2022-12-18T00:38:44;98076.69;;;-3.53;90.19
6668;BME280;3370;47.712;9.082;2022-12-18T00:41:13;98077.56;;;-3.51;89.84
6668;BME280;3370;47.712;9.082;2022-12-18T00:43:59;98072.13;;;-3.35;87.93
6668;BME280;3370;47.712;9.082;2022-12-18T00:46:25;98066.97;;;-3.39;88.05
6668;BME280;3370;47.712;9.082;2022-12-18T00:48:51;98064.25;;;-3.47;89.05
6668;BME280;3370;47.712;9.082;2022-12-18T00:51:17;98067.75;;;-3.42;89.65
6668;BME280;3370;47.712;9.082;2022-12-18T00:53:43;98062.56;;;-3.48;89.97
6668;BME280;3370;47.712;9.082;2022-12-18T00:56:09;98071.06;;;-3.43;90.27
6668;BME280;3370;47.712;9.082;2022-12-18T00:58:34;98068.50;;;-3.44;90.59
6668;BME280;3370;47.712;9.082;2022-12-18T01:01:00;98081.06;;;-3.46;90.42
6668;BME280;3370;47.712;9.082;2022-12-18T01:03:26;98081.06;;;-3.46;90.56
6668;BME280;3370;47.712;9.082;2022-12-18T01:05:52;98087.69;;;-3.48;90.60
6668;BME280;3370;47.712;9.082;2022-12-18T01:08:17;98092.06;;;-3.42;90.55
6668;BME280;3370;47.712;9.082;2022-12-18T01:10:43;98098.91;;;-3.37;89.73
6668;BME280;3370;47.712;9.082;2022-12-18T01:13:09;98099.38;;;-3.50;89.98
6668;BME280;3370;47.712;9.082;2022-12-18T01:15:35;98093.78;;;-3.40;89.83
6668;BME280;3370;47.712;9.082;2022-12-18T01:18:01;98090.41;;;-3.42;89.98
6668;BME280;3370;47.712;9.082;2022-12-18T01:20:26;98099.63;;;-3.41;89.92
6668;BME280;3370;47.712;9.082;2022-12-18T01:22:52;98102.28;;;-3.36;90.10
6668;BME280;3370;47.712;9.082;2022-12-18T01:25:18;98098.88;;;-3.38;90.13
6668;BME280;3370;47.712;9.082;2022-12-18T01:27:44;98093.06;;;-3.36;89.75
6668;BME280;3370;47.712;9.082;2022-12-18T01:30:10;98102.19;;;-3.39;89.93
6668;BME280;3370;47.712;9.082;2022-12-18T01:32:36;98109.88;;;-3.35;90.37
6668;BME280;3370;47.712;9.082;2022-12-18T01:35:03;98111.25;;;-3.46;90.23
6668;BME280;3370;47.712;9.082;2022-12-18T01:37:29;98115.53;;;-3.42;90.50
6668;BME280;3370;47.712;9.082;2022-12-18T01:39:54;98111.50;;;-3.37;90.76
6668;BME280;3370;47.712;9.082;2022-12-18T01:42:21;98121.66;;;-3.32;90.50
6668;BME280;3370;47.712;9.082;2022-12-18T01:47:48;98101.25;;;-3.43;90.94
6668;BME280;3370;47.712;9.082;2022-12-18T01:50:31;98121.38;;;-3.43;91.22
6668;BME280;3370;47.712;9.082;2022-12-18T01:53:13;98126.50;;;-3.40;91.39
6668;BME280;3370;47.712;9.082;2022-12-18T01:55:55;98115.53;;;-3.42;92.14
6668;BME280;3370;47.712;9.082;2022-12-18T01:58:46;98116.28;;;-3.44;91.84
6668;BME280;3370;47.712;9.082;2022-12-18T02:01:14;98119.00;;;-3.38;91.61
6668;BME280;3370;47.712;9.082;2022-12-18T02:03:44;98126.59;;;-3.37;91.90
6668;BME280;3370;47.712;9.082;2022-12-18T02:06:16;98128.38;;;-3.33;91.44
6668;BME280;3370;47.712;9.082;2022-12-18T02:09:54;98128.28;;;-3.36;91.42
6668;BME280;3370;47.712;9.082;2022-12-18T02:12:08;98118.31;;;-3.33;92.01
6668;BME280;3370;47.712;9.082;2022-12-18T02:15:09;98117.31;;;-3.38;91.62
6668;BME280;3370;47.712;9.082;2022-12-18T02:17:48;98121.56;;;-3.37;91.44
6668;BME280;3370;47.712;9.082;2022-12-18T02:20:43;98116.59;;;-3.34;91.66
6668;BME280;3370;47.712;9.082;2022-12-18T02:29:20;98115.44;;;-3.45;91.90
6668;BME280;3370;47.712;9.082;2022-12-18T02:31:35;98114.66;;;-3.44;92.43
6668;BME280;3370;47.712;9.082;2022-12-18T02:34:04;98112.63;;;-3.25;92.16
6668;BME280;3370;47.712;9.082;2022-12-18T02:36:32;98110.81;;;-3.31;92.30
6668;BME280;3370;47.712;9.082;2022-12-18T02:39:00;98118.16;;;-3.37;92.50
6668;BME280;3370;47.712;9.082;2022-12-18T02:41:28;98113.38;;;-3.30;92.57
6668;BME280;3370;47.712;9.082;2022-12-18T02:44:02;98110.84;;;-3.30;92.45
6668;BME280;3370;47.712;9.082;2022-12-18T02:46:39;98114.31;;;-3.26;92.94
6668;BME280;3370;47.712;9.082;2022-12-18T02:56:07;98124.41;;;-3.23;92.71
6668;BME280;3370;47.712;9.082;2022-12-18T03:01:30;98129.44;;;-3.23;92.74
6668;BME280;3370;47.712;9.082;2022-12-18T03:04:14;98128.50;;;-3.27;93.09
6668;BME280;3370;47.712;9.082;2022-12-18T03:06:48;98137.63;;;-3.32;93.61
6668;BME280;3370;47.712;9.082;2022-12-18T03:09:36;98131.84;;;-3.28;93.53
6668;BME280;3370;47.712;9.082;2022-12-18T03:12:30;98132.56;;;-3.33;94.32
6668;BME280;3370;47.712;9.082;2022-12-18T03:17:33;98137.72;;;-3.27;94.16
6668;BME280;3370;47.712;9.082;2022-12-18T03:20:08;98138.56;;;-3.28;94.28
6668;BME280;3370;47.712;9.082;2022-12-18T03:22:36;98132.06;;;-3.20;93.96
6668;BME280;3370;47.712;9.082;2022-12-18T03:25:07;98126.38;;;-3.13;93.39
6668;BME280;3370;47.712;9.082;2022-12-18T03:27:38;98132.34;;;-3.09;93.17
6668;BME280;3370;47.712;9.082;2022-12-18T03:30:10;98129.91;;;-3.06;92.71
6668;BME280;3370;47.712;9.082;2022-12-18T03:32:57;98119.72;;;-3.11;92.85
6668;BME280;3370;47.712;9.082;2022-12-18T03:35:33;98125.78;;;-3.04;92.56
6668;BME280;3370;47.712;9.082;2022-12-18T03:38:00;98126.63;;;-3.03;92.16
6668;BME280;3370;47.712;9.082;2022-12-18T03:46:14;98127.41;;;-3.06;91.78
6668;BME280;3370;47.712;9.082;2022-12-18T03:48:52;98135.75;;;-3.07;92.26
6668;BME280;3370;47.712;9.082;2022-12-18T03:51:57;98143.38;;;-3.04;90.60
6668;BME280;3370;47.712;9.082;2022-12-18T03:54:25;98142.91;;;-3.22;91.40
6668;BME280;3370;47.712;9.082;2022-12-18T03:57:07;98147.84;;;-3.25;92.48
6668;BME280;3370;47.712;9.082;2022-12-18T03:59:35;98156.44;;;-3.17;92.25
6668;BME280;3370;47.712;9.082;2022-12-18T04:02:05;98142.91;;;-3.21;91.29
6668;BME280;3370;47.712;9.082;2022-12-18T04:04:34;98148.56;;;-3.30;92.48
6668;BME280;3370;47.712;9.082;2022-12-18T04:07:02;98146.00;;;-3.31;92.94
6668;BME280;3370;47.712;9.082;2022-12-18T04:09:28;98154.34;;;-3.32;93.31
6668;BME280;3370;47.712;9.082;2022-12-18T04:11:55;98159.53;;;-3.28;93.54
6668;BME280;3370;47.712;9.082;2022-12-18T04:14:21;98164.59;;;-3.26;93.62
6668;BME280;3370;47.712;9.082;2022-12-18T04:16:47;98168.94;;;-3.20;93.88
6668;BME280;3370;47.712;9.082;2022-12-18T04:19:12;98169.63;;;-3.26;93.32
6668;BME280;3370;47.712;9.082;2022-12-18T04:21:38;98168.91;;;-3.22;93.79
6668;BME280;3370;47.712;9.082;2022-12-18T04:24:04;98170.38;;;-3.29;93.53
6668;BME280;3370;47.712;9.082;2022-12-18T04:26:30;98166.38;;;-3.22;93.71
6668;BME280;3370;47.712;9.082;2022-12-18T04:28:56;98162.28;;;-3.18;93.14
6668;BME280;3370;47.712;9.082;2022-12-18T04:31:22;98167.03;;;-3.29;92.39
6668;BME280;3370;47.712;9.082;2022-12-18T04:33:47;98165.19;;;-3.35;93.08
6668;BME280;3370;47.712;9.082;2022-12-18T04:36:13;98172.00;;;-3.31;93.45
6668;BME280;3370;47.712;9.082;2022-12-18T04:38:39;98182.16;;;-3.28;93.74
6668;BME280;3370;47.712;9.082;2022-12-18T04:41:05;98177.81;;;-3.33;93.40
6668;BME280;3370;47.712;9.082;2022-12-18T04:43:31;98178.13;;;-3.22;93.25
6668;BME280;3370;47.712;9.082;2022-12-18T04:46:06;98175.50;;;-3.25;91.30
6668;BME280;3370;47.712;9.082;2022-12-18T04:48:32;98180.28;;;-3.35;92.33
6668;BME280;3370;47.712;9.082;2022-12-18T04:50:58;98177.72;;;-3.36;93.18
6668;BME280;3370;47.712;9.082;2022-12-18T04:53:24;98174.41;;;-3.35;93.89
6668;BME280;3370;47.712;9.082;2022-12-18T04:55:50;98174.63;;;-3.28;92.93
6668;BME280;3370;47.712;9.082;2022-12-18T04:58:16;98177.28;;;-3.21;91.60
6668;BME280;3370;47.712;9.082;2022-12-18T05:00:43;98185.56;;;-3.25;91.80
6668;BME280;3370;47.712;9.082;2022-12-18T05:03:08;98181.97;;;-3.35;93.00
6668;BME280;3370;47.712;9.082;2022-12-18T05:05:35;98177.81;;;-3.33;93.71
6668;BME280;3370;47.712;9.082;2022-12-18T05:08:01;98180.38;;;-3.32;93.85
6668;BME280;3370;47.712;9.082;2022-12-18T05:10:29;98189.56;;;-3.32;94.31
6668;BME280;3370;47.712;9.082;2022-12-18T05:12:55;98191.41;;;-3.27;94.28
6668;BME280;3370;47.712;9.082;2022-12-18T05:15:29;98183.78;;;-3.30;93.95
6668;BME280;3370;47.712;9.082;2022-12-18T05:17:56;98187.19;;;-3.28;93.39
6668;BME280;3370;47.712;9.082;2022-12-18T05:20:23;98183.06;;;-3.25;92.78
6668;BME280;3370;47.712;9.082;2022-12-18T05:22:49;98195.63;;;-3.25;92.80
6668;BME280;3370;47.712;9.082;2022-12-18T05:25:15;98194.91;;;-3.21;93.09
6668;BME280;3370;47.712;9.082;2022-12-18T05:27:41;98197.31;;;-3.26;93.39
6668;BME280;3370;47.712;9.082;2022-12-18T05:30:08;98198.06;;;-3.29;93.68
6668;BME280;3370;47.712;9.082;2022-12-18T05:32:34;98194.84;;;-3.23;93.76
6668;BME280;3370;47.712;9.082;2022-12-18T05:35:00;98204.06;;;-3.23;93.75
6668;BME280;3370;47.712;9.082;2022-12-18T05:37:26;98208.16;;;-3.27;93.79
6668;BME280;3370;47.712;9.082;2022-12-18T05:39:51;98208.22;;;-3.25;94.03
6668;BME280;3370;47.712;9.082;2022-12-18T05:42:17;98213.28;;;-3.24;93.91
6668;BME280;3370;47.712;9.082;2022-12-18T05:44:44;98212.59;;;-3.18;93.30
6668;BME280;3370;47.712;9.082;2022-12-18T05:47:10;98210.03;;;-3.20;93.07
6668;BME280;3370;47.712;9.082;2022-12-18T05:49:35;98209.25;;;-3.17;93.11
6668;BME280;3370;47.712;9.082;2022-12-18T05:52:01;98210.94;;;-3.18;93.16
6668;BME280;3370;47.712;9.082;2022-12-18T05:54:27;98204.22;;;-3.17;93.57
6668;BME280;3370;47.712;9.082;2022-12-18T05:56:53;98205.00;;;-3.20;93.58
6668;BME280;3370;47.712;9.082;2022-12-18T05:59:19;98209.25;;;-3.17;93.51
6668;BME280;3370;47.712;9.082;2022-12-18T06:01:45;98210.97;;;-3.16;92.83
6668;BME280;3370;47.712;9.082;2022-12-18T06:04:11;98213.41;;;-3.19;92.86
6668;BME280;3370;47.712;9.082;2022-12-18T06:06:37;98198.53;;;-3.12;92.90
6668;BME280;3370;47.712;9.082;2022-12-18T06:09:03;98199.38;;;-3.11;91.76
6668;BME280;3370;47.712;9.082;2022-12-18T06:11:36;98205.09;;;-3.17;91.64
6668;BME280;3370;47.712;9.082;2022-12-18T06:14:05;98202.38;;;-3.24;91.99
6668;BME280;3370;47.712;9.082;2022-12-18T06:16:31;98210.81;;;-3.22;92.36
6668;BME280;3370;47.712;9.082;2022-12-18T06:18:59;98203.34;;;-3.19;93.26
6668;BME280;3370;47.712;9.082;2022-12-18T06:21:26;98206.78;;;-3.16;93.02
6668;BME280;3370;47.712;9.082;2022-12-18T06:23:52;98207.69;;;-3.15;93.19
6668;BME280;3370;47.712;9.082;2022-12-18T06:26:18;98215.84;;;-3.22;93.51
6668;BME280;3370;47.712;9.082;2022-12-18T06:28:44;98213.34;;;-3.22;93.81
6668;BME280;3370;47.712;9.082;2022-12-18T06:31:10;98215.91;;;-3.19;93.79
6668;BME280;3370;47.712;9.082;2022-12-18T06:33:37;98216.00;;;-3.16;94.00
6668;BME280;3370;47.712;9.082;2022-12-18T06:36:13;98218.47;;;-3.18;93.90
6668;BME280;3370;47.712;9.082;2022-12-18T06:38:41;98224.66;;;-3.08;93.69
6668;BME280;3370;47.712;9.082;2022-12-18T06:41:13;98231.31;;;-3.09;93.80
6668;BME280;3370;47.712;9.082;2022-12-18T06:43:39;98229.63;;;-3.10;93.03
6668;BME280;3370;47.712;9.082;2022-12-18T06:46:05;98243.78;;;-3.13;92.49
6668;BME280;3370;47.712;9.082;2022-12-18T06:48:32;98238.50;;;-3.21;93.05
6668;BME280;3370;47.712;9.082;2022-12-18T06:50:58;98236.06;;;-3.19;93.12
6668;BME280;3370;47.712;9.082;2022-12-18T06:53:24;98240.41;;;-3.14;93.70
6668;BME280;3370;47.712;9.082;2022-12-18T06:55:50;98249.53;;;-3.17;94.26
6668;BME280;3370;47.712;9.082;2022-12-18T06:58:16;98251.50;;;-3.07;94.31
6668;BME280;3370;47.712;9.082;2022-12-18T07:00:42;98253.22;;;-3.06;94.11
6668;BME280;3370;47.712;9.082;2022-12-18T07:03:08;98255.78;;;-3.04;94.11
6668;BME280;3370;47.712;9.082;2022-12-18T07:05:34;98253.91;;;-3.12;94.17
6668;BME280;3370;47.712;9.082;2022-12-18T07:08:00;98259.88;;;-3.08;93.92
6668;BME280;3370;47.712;9.082;2022-12-18T07:10:26;98259.69;;;-3.14;94.14
6668;BME280;3370;47.712;9.082;2022-12-18T07:12:52;98266.50;;;-3.10;93.46
6668;BME280;3370;47.712;9.082;2022-12-18T07:15:17;98270.00;;;-3.05;93.52
6668;BME280;3370;47.712;9.082;2022-12-18T07:17:43;98270.19;;;-2.99;93.12
6668;BME280;3370;47.712;9.082;2022-12-18T07:20:10;98278.44;;;-3.03;93.23
6668;BME280;3370;47.712;9.082;2022-12-18T07:22:35;98274.19;;;-3.05;93.69
6668;BME280;3370;47.712;9.082;2022-12-18T07:25:01;98274.69;;;-3.17;93.27
6668;BME280;3370;47.712;9.082;2022-12-18T07:27:27;98281.44;;;-3.16;93.87
6668;BME280;3370;47.712;9.082;2022-12-18T07:29:53;98281.28;;;-3.21;94.24
6668;BME280;3370;47.712;9.082;2022-12-18T07:32:19;98278.13;;;-3.15;94.99
6668;BME280;3370;47.712;9.082;2022-12-18T07:34:44;98287.25;;;-3.17;95.51
6668;BME280;3370;47.712;9.082;2022-12-18T07:37:10;98290.88;;;-3.09;94.59
6668;BME280;3370;47.712;9.082;2022-12-18T07:39:36;98297.06;;;-2.98;93.13
6668;BME280;3370;47.712;9.082;2022-12-18T07:42:02;98298.31;;;-3.12;92.90
6668;BME280;3370;47.712;9.082;2022-12-18T07:44:46;98296.69;;;-3.10;92.85
6668;BME280;3370;47.712;9.082;2022-12-18T07:47:12;98295.09;;;-3.08;93.03
6668;BME280;3370;47.712;9.082;2022-12-18T07:49:38;98291.66;;;-3.10;93.53
6668;BME280;3370;47.712;9.082;2022-12-18T07:52:04;98284.75;;;-3.17;94.61
6668;BME280;3370;47.712;9.082;2022-12-18T07:54:29;98285.78;;;-3.11;94.54
6668;BME280;3370;47.712;9.082;2022-12-18T07:56:55;98287.81;;;-3.28;95.32
6668;BME280;3370;47.712;9.082;2022-12-18T07:59:21;98297.41;;;-3.43;95.54
6668;BME280;3370;47.712;9.082;2022-12-18T08:01:47;98293.72;;;-3.54;97.03
6668;BME280;3370;47.712;9.082;2022-12-18T08:04:12;98295.44;;;-3.53;97.21
6668;BME280;3370;47.712;9.082;2022-12-18T08:06:38;98303.22;;;-3.45;96.79
6668;BME280;3370;47.712;9.082;2022-12-18T08:09:07;98305.09;;;-3.38;95.93
6668;BME280;3370;47.712;9.082;2022-12-18T08:11:34;98303.88;;;-3.51;96.50
6668;BME280;3370;47.712;9.082;2022-12-18T08:14:00;98309.91;;;-3.46;97.82
6668;BME280;3370;47.712;9.082;2022-12-18T08:16:26;98315.59;;;-3.23;97.73
6668;BME280;3370;47.712;9.082;2022-12-18T08:18:53;98314.09;;;-3.18;96.91
6668;BME280;3370;47.712;9.082;2022-12-18T08:21:30;98312.34;;;-3.20;94.03
6668;BME280;3370;47.712;9.082;2022-12-18T08:23:59;98310.69;;;-3.47;94.43
6668;BME280;3370;47.712;9.082;2022-12-18T08:26:28;98310.59;;;-3.52;94.85
6668;BME280;3370;47.712;9.082;2022-12-18T08:28:56;98315.44;;;-3.29;95.00
6668;BME280;3370;47.712;9.082;2022-12-18T08:31:22;98312.78;;;-3.34;94.74
6668;BME280;3370;47.712;9.082;2022-12-18T08:33:50;98314.88;;;-3.20;94.34
6668;BME280;3370;47.712;9.082;2022-12-18T08:36:17;98312.88;;;-3.31;93.66
6668;BME280;3370;47.712;9.082;2022-12-18T08:38:43;98308.34;;;-3.42;95.27
6668;BME280;3370;47.712;9.082;2022-12-18T08:41:12;98308.56;;;-3.35;95.49
6668;BME280;3370;47.712;9.082;2022-12-18T08:43:38;98315.50;;;-3.28;95.68
6668;BME280;3370;47.712;9.082;2022-12-18T08:46:25;98321.91;;;-3.09;93.24
6668;BME280;3370;47.712;9.082;2022-12-18T08:48:53;98325.78;;;-3.20;93.41
6668;BME280;3370;47.712;9.082;2022-12-18T08:51:20;98323.72;;;-3.33;93.81
6668;BME280;3370;47.712;9.082;2022-12-18T08:53:46;98321.81;;;-3.40;94.26
6668;BME280;3370;47.712;9.082;2022-12-18T08:56:13;98313.97;;;-3.22;93.86
6668;BME280;3370;47.712;9.082;2022-12-18T08:58:40;98308.56;;;-3.35;95.20
6668;BME280;3370;47.712;9.082;2022-12-18T09:01:10;98311.56;;;-3.47;94.61
6668;BME280;3370;47.712;9.082;2022-12-18T09:03:37;98321.47;;;-3.51;96.43
6668;BME280;3370;47.712;9.082;2022-12-18T09:06:03;98319.88;;;-3.49;96.63
6668;BME280;3370;47.712;9.082;2022-12-18T09:08:29;98316.63;;;-3.45;96.96
6668;BME280;3370;47.712;9.082;2022-12-18T09:10:55;98304.25;;;-3.39;97.29
6668;BME280;3370;47.712;9.082;2022-12-18T09:13:22;98304.88;;;-3.46;97.25
6668;BME280;3370;47.712;9.082;2022-12-18T09:15:53;98313.59;;;-3.35;96.95
6668;BME280;3370;47.712;9.082;2022-12-18T09:18:22;98308.03;;;-3.24;95.08
6668;BME280;3370;47.712;9.082;2022-12-18T09:20:48;98304.81;;;-3.20;95.71
6668;BME280;3370;47.712;9.082;2022-12-18T09:23:15;98299.56;;;-3.28;95.40
6668;BME280;3370;47.712;9.082;2022-12-18T09:25:41;98297.94;;;-3.26;94.95
6668;BME280;3370;47.712;9.082;2022-12-18T09:28:16;98304.59;;;-3.28;93.85
6668;BME280;3370;47.712;9.082;2022-12-18T09:30:49;98305.53;;;-3.23;94.38
6668;BME280;3370;47.712;9.082;2022-12-18T09:33:16;98302.69;;;-3.35;95.68
6668;BME280;3370;47.712;9.082;2022-12-18T09:35:43;98301.97;;;-3.31;95.11
6668;BME280;3370;47.712;9.082;2022-12-18T09:38:19;98302.81;;;-3.31;94.71
6668;BME280;3370;47.712;9.082;2022-12-18T09:40:52;98302.72;;;-3.34;95.40
6668;BME280;3370;47.712;9.082;2022-12-18T09:43:52;98314.88;;;-3.20;95.13
6668;BME280;3370;47.712;9.082;2022-12-18T09:46:30;98306.59;;;-3.16;96.16
6668;BME280;3370;47.712;9.082;2022-12-18T09:49:03;98298.50;;;-3.06;96.69
6668;BME280;3370;47.712;9.082;2022-12-18T09:52:04;98302.44;;;-3.14;96.96
6668;BME280;3370;47.712;9.082;2022-12-18T09:54:39;98304.97;;;-3.14;96.77
6668;BME280;3370;47.712;9.082;2022-12-18T09:57:06;98305.22;;;-3.05;97.21
6668;BME280;3370;47.712;9.082;2022-12-18T09:59:38;98299.25;;;-3.09;96.43
6668;BME280;3370;47.712;9.082;2022-12-18T10:02:22;98299.84;;;-3.17;97.31
6668;BME280;3370;47.712;9.082;2022-12-18T10:05:10;98306.16;;;-3.30;96.44
6668;BME280;3370;47.712;9.082;2022-12-18T10:08:10;98304.59;;;-3.27;96.13
6668;BME280;3370;47.712;9.082;2022-12-18T10:10:54;98305.44;;;-2.99;95.49
6668;BME280;3370;47.712;9.082;2022-12-18T10:13:39;98309.25;;;-2.81;94.48
6668;BME280;3370;47.712;9.082;2022-12-18T10:16:17;98312.41;;;-2.89;94.36
6668;BME280;3370;47.712;9.082;2022-12-18T10:22:07;98315.75;;;-2.90;94.36
6668;BME280;3370;47.712;9.082;2022-12-18T10:24:59;98317.28;;;-2.95;94.02
6668;BME280;3370;47.712;9.082;2022-12-18T10:27:27;98308.75;;;-3.00;95.52
6668;BME280;3370;47.712;9.082;2022-12-18T10:29:54;98302.34;;;-2.89;95.17
6668;BME280;3370;47.712;9.082;2022-12-18T10:32:27;98304.38;;;-2.77;95.32
6668;BME280;3370;47.712;9.082;2022-12-18T10:34:56;98304.16;;;-2.84;94.67
6668;BME280;3370;47.712;9.082;2022-12-18T10:37:28;98306.44;;;-2.92;93.96
6668;BME280;3370;47.712;9.082;2022-12-18T10:40:15;98304.28;;;-3.09;94.36
6668;BME280;3370;47.712;9.082;2022-12-18T10:42:41;98307.63;;;-2.81;94.45
6668;BME280;3370;47.712;9.082;2022-12-18T10:45:14;98317.28;;;-2.95;94.52
6668;BME280;3370;47.712;9.082;2022-12-18T10:47:58;98318.66;;;-3.06;93.87
6668;BME280;3370;47.712;9.082;2022-12-18T10:50:34;98320.66;;;-2.94;93.17
6668;BME280;3370;47.712;9.082;2022-12-18T10:53:03;98319.22;;;-2.86;94.45
6668;BME280;3370;47.712;9.082;2022-12-18T10:55:35;98310.53;;;-2.96;94.26
6668;BME280;3370;47.712;9.082;2022-12-18T11:01:13;98313.69;;;-2.73;95.13
6668;BME280;3370;47.712;9.082;2022-12-18T11:04:04;98301.25;;;-2.98;93.38
6668;BME280;3370;47.712;9.082;2022-12-18T11:06:32;98312.41;;;-3.19;94.00
6668;BME280;3370;47.712;9.082;2022-12-18T11:09:20;98314.81;;;-2.93;95.46
6668;BME280;3370;47.712;9.082;2022-12-18T11:11:55;98313.13;;;-2.93;93.73
6668;BME280;3370;47.712;9.082;2022-12-18T11:14:42;98308.25;;;-2.88;94.66
6668;BME280;3370;47.712;9.082;2022-12-18T11:19:55;98294.00;;;-2.87;92.41
6668;BME280;3370;47.712;9.082;2022-12-18T11:22:30;98301.16;;;-3.01;93.61
6668;BME280;3370;47.712;9.082;2022-12-18T11:25:04;98294.88;;;-2.85;94.29
6668;BME280;3370;47.712;9.082;2022-12-18T11:27:31;98298.78;;;-2.65;92.41
6668;BME280;3370;47.712;9.082;2022-12-18T11:30:37;98296.22;;;-2.68;93.35
6668;BME280;3370;47.712;9.082;2022-12-18T11:33:15;98285.16;;;-2.41;93.46
6668;BME280;3370;47.712;9.082;2022-12-18T11:38:24;98281.00;;;-2.41;88.29
6668;BME280;3370;47.712;9.082;2022-12-18T11:43:52;98282.28;;;-2.55;90.32
6668;BME280;3370;47.712;9.082;2022-12-18T11:46:36;98278.75;;;-2.62;91.64
6668;BME280;3370;47.712;9.082;2022-12-18T11:49:25;98278.25;;;-2.48;92.05
6668;BME280;3370;47.712;9.082;2022-12-18T11:52:31;98272.25;;;-2.54;90.45
6668;BME280;3370;47.712;9.082;2022-12-18T11:55:04;98262.53;;;-2.40;89.81
6668;BME280;3370;47.712;9.082;2022-12-18T11:58:07;98257.38;;;-2.44;91.02
6668;BME280;3370;47.712;9.082;2022-12-18T12:00:56;98254.06;;;-2.42;92.13
6668;BME280;3370;47.712;9.082;2022-12-18T12:03:46;98255.19;;;-2.31;92.41
6668;BME280;3370;47.712;9.082;2022-12-18T12:06:53;98248.34;;;-2.03;90.10
6668;BME280;3370;47.712;9.082;2022-12-18T12:09:31;98245.38;;;-2.20;90.35
6668;BME280;3370;47.712;9.082;2022-12-18T12:12:54;98249.72;;;-2.14;90.04
6668;BME280;3370;47.712;9.082;2022-12-18T12:15:43;98262.53;;;-2.06;90.31
6668;BME280;3370;47.712;9.082;2022-12-18T12:18:22;98261.59;;;-2.10;91.40
6668;BME280;3370;47.712;9.082;2022-12-18T12:21:35;98258.16;;;-2.14;89.63
6668;BME280;3370;47.712;9.082;2022-12-18T12:36:18;98238.59;;;-2.57;93.51
6668;BME280;3370;47.712;9.082;2022-12-18T12:38:54;98238.06;;;-2.44;94.89
6668;BME280;3370;47.712;9.082;2022-12-18T12:41:25;98233.53;;;-2.24;95.60
6668;BME280;3370;47.712;9.082;2022-12-18T12:44:23;98222.41;;;-1.97;94.13
6668;BME280;3370;47.712;9.082;2022-12-18T12:46:54;98220.91;;;-2.25;91.71
6668;BME280;3370;47.712;9.082;2022-12-18T12:49:25;98226.78;;;-2.26;91.13
6668;BME280;3370;47.712;9.082;2022-12-18T12:52:06;98219.97;;;-2.29;92.31
6668;BME280;3370;47.712;9.082;2022-12-18T12:54:34;98233.22;;;-2.36;93.66
6668;BME280;3370;47.712;9.082;2022-12-18T12:57:15;98231.38;;;-2.43;93.82
6668;BME280;3370;47.712;9.082;2022-12-18T13:00:15;98229.59;;;-2.47;93.33
6668;BME280;3370;47.712;9.082;2022-12-18T13:07:09;98227.31;;;-2.03;90.75
6668;BME280;3370;47.712;9.082;2022-12-18T13:15:48;98228.03;;;-2.42;93.98
6668;BME280;3370;47.712;9.082;2022-12-18T13:18:23;98224.16;;;-2.29;92.38
6668;BME280;3370;47.712;9.082;2022-12-18T13:20:51;98209.19;;;-2.23;92.28
6668;BME280;3370;47.712;9.082;2022-12-18T13:23:36;98211.97;;;-2.13;91.53
6668;BME280;3370;47.712;9.082;2022-12-18T13:34:23;98242.81;;;-2.23;92.92
6668;BME280;3370;47.712;9.082;2022-12-18T13:36:51;98233.06;;;-2.09;91.52
6668;BME280;3370;47.712;9.082;2022-12-18T13:42:38;98238.25;;;-2.03;92.46
6668;BME280;3370;47.712;9.082;2022-12-18T13:44:58;98229.16;;;-1.96;92.94
6668;BME280;3370;47.712;9.082;2022-12-18T13:47:34;98221.59;;;-1.96;92.82
6668;BME280;3370;47.712;9.082;2022-12-18T13:50:10;98223.50;;;-1.86;92.22
6668;BME280;3370;47.712;9.082;2022-12-18T13:52:43;98214.31;;;-1.84;92.74
6668;BME280;3370;47.712;9.082;2022-12-18T13:55:19;98218.50;;;-1.84;93.17
6668;BME280;3370;47.712;9.082;2022-12-18T13:57:46;98224.81;;;-1.65;90.07
6668;BME280;3370;47.712;9.082;2022-12-18T14:00:29;98212.78;;;-2.14;91.15
6668;BME280;3370;47.712;9.082;2022-12-18T14:02:57;98226.31;;;-2.10;92.75
6668;BME280;3370;47.712;9.082;2022-12-18T14:05:35;98224.06;;;-1.99;93.43
6668;BME280;3370;47.712;9.082;2022-12-18T14:08:08;98222.34;;;-2.00;93.52
6668;BME280;3370;47.712;9.082;2022-12-18T14:10:47;98220.50;;;-2.07;94.16
6668;BME280;3370;47.712;9.082;2022-12-18T14:13:37;98224.81;;;-2.02;94.51
6668;BME280;3370;47.712;9.082;2022-12-18T14:16:06;98224.97;;;-1.96;94.47
6668;BME280;3370;47.712;9.082;2022-12-18T14:18:46;98230.19;;;-1.88;94.80
6668;BME280;3370;47.712;9.082;2022-12-18T14:21:33;98236.34;;;-1.77;93.29
6668;BME280;3370;47.712;9.082;2022-12-18T14:24:18;98234.41;;;-1.88;93.27
6668;BME280;3370;47.712;9.082;2022-12-18T14:26:45;98232.63;;;-1.91;93.29
6668;BME280;3370;47.712;9.082;2022-12-18T14:29:30;98235.91;;;-1.95;93.72
6668;BME280;3370;47.712;9.082;2022-12-18T14:32:16;98236.94;;;-1.87;93.92
6668;BME280;3370;47.712;9.082;2022-12-18T14:34:51;98233.53;;;-1.89;93.46
6668;BME280;3370;47.712;9.082;2022-12-18T14:37:25;98228.44;;;-1.90;93.60
6668;BME280;3370;47.712;9.082;2022-12-18T14:40:00;98231.00;;;-1.89;93.52
6668;BME280;3370;47.712;9.082;2022-12-18T14:42:27;98235.81;;;-1.98;92.82
6668;BME280;3370;47.712;9.082;2022-12-18T14:45:38;98232.34;;;-2.03;93.84
6668;BME280;3370;47.712;9.082;2022-12-18T14:48:42;98232.44;;;-2.00;94.03
6668;BME280;3370;47.712;9.082;2022-12-18T14:51:28;98232.59;;;-1.93;93.67
6668;BME280;3370;47.712;9.082;2022-12-18T14:54:04;98236.13;;;-1.86;93.21
6668;BME280;3370;47.712;9.082;2022-12-18T14:56:47;98242.63;;;-1.94;93.32
6668;BME280;3370;47.712;9.082;2022-12-18T14:59:23;98251.31;;;-2.19;94.03
6668;BME280;3370;47.712;9.082;2022-12-18T15:04:36;98250.66;;;-2.10;94.43
6668;BME280;3370;47.712;9.082;2022-12-18T15:07:21;98249.03;;;-2.08;94.20
6668;BME280;3370;47.712;9.082;2022-12-18T15:10:29;98246.53;;;-2.07;93.17